sensor_id;sensor_type;location;lat;lon;timestamp;pressure;altitude;pressure_sealevel;temperature;humidity
32298;BME280;18782;48.984;8.548;2022-12-17T00:00:12;100460.13;;;-4.63;90.71
32298;BME280;18782;48.984;8.548;2022-12-17T00:02:58;100469.59;;;-4.69;91.22
32298;BME280;18782;48.984;8.548;2022-12-17T00:05:44;100463.09;;;-4.76;91.31
32298;BME280;18782;48.984;8.548;2022-12-17T00:08:29;100468.44;;;-4.81;92.45
32298;BME280;18782;48.984;8.548;2022-12-17T00:11:15;100472.91;;;-4.87;92.29
32298;BME280;18782;48.984;8.548;2022-12-17T00:14:01;100477.06;;;-4.88;92.28
32298;BME280;18782;48.984;8.548;2022-12-17T00:16:46;100472.66;;;-4.90;92.54
32298;BME280;18782;48.984;8.548;2022-12-17T00:19:31;100479.13;;;-4.92;91.82
32298;BME280;18782;48.984;8.548;2022-12-17T00:22:17;100492.00;;;-4.98;92.24
32298;BME280;18782;48.984;8.548;2022-12-17T00:25:02;100480.94;;;-5.09;91.98
32298;BME280;18782;48.984;8.548;2022-12-17T00:27:48;100482.44;;;-5.11;91.76
32298;BME280;18782;48.984;8.548;2022-12-17T00:30:33;100482.13;;;-5.14;91.55
32298;BME280;18782;48.984;8.548;2022-12-17T00:33:19;100484.53;;;-5.24;91.74
32298;BME280;18782;48.984;8.548;2022-12-17T00:36:04;100491.47;;;-5.30;91.82
32298;BME280;18782;48.984;8.548;2022-12-17T00:38:49;100496.78;;;-5.36;92.24
32298;BME280;18782;48.984;8.548;2022-12-17T00:41:35;100499.59;;;-5.41;92.14
32298;BME280;18782;48.984;8.548;2022-12-17T00:44:22;100501.06;;;-5.43;92.13
32298;BME280;18782;48.984;8.548;2022-12-17T00:47:07;100505.50;;;-5.49;92.35
32298;BME280;18782;48.984;8.548;2022-12-17T00:49:53;100495.00;;;-5.54;91.87
32298;BME280;18782;48.984;8.548;2022-12-17T00:52:39;100501.06;;;-5.61;92.41
32298;BME280;18782;48.984;8.548;2022-12-17T00:55:25;100501.81;;;-5.62;92.15
32298;BME280;18782;48.984;8.548;2022-12-17T00:58:09;100504.75;;;-5.66;92.91
32298;BME280;18782;48.984;8.548;2022-12-17T01:00:58;100517.44;;;-5.73;92.01
32298;BME280;18782;48.984;8.548;2022-12-17T01:03:43;100516.41;;;-5.75;92.45
32298;BME280;18782;48.984;8.548;2022-12-17T01:06:28;100523.19;;;-5.83;92.02
32298;BME280;18782;48.984;8.548;2022-12-17T01:09:13;100524.81;;;-5.83;92.41
32298;BME280;18782;48.984;8.548;2022-12-17T01:11:58;100521.84;;;-5.88;92.89
32298;BME280;18782;48.984;8.548;2022-12-17T01:14:43;100512.28;;;-5.92;92.70
32298;BME280;18782;48.984;8.548;2022-12-17T01:17:29;100515.22;;;-5.96;92.58
32298;BME280;18782;48.984;8.548;2022-12-17T01:20:14;100515.81;;;-5.98;92.65
32298;BME280;18782;48.984;8.548;2022-12-17T01:22:59;100521.88;;;-5.96;93.23
32298;BME280;18782;48.984;8.548;2022-12-17T01:25:50;100530.88;;;-5.98;92.84
32298;BME280;18782;48.984;8.548;2022-12-17T01:28:35;100531.59;;;-5.99;92.36
32298;BME280;18782;48.984;8.548;2022-12-17T01:31:20;100527.91;;;-6.03;92.03
32298;BME280;18782;48.984;8.548;2022-12-17T01:34:06;100534.41;;;-6.05;92.09
32298;BME280;18782;48.984;8.548;2022-12-17T01:36:51;100538.22;;;-6.09;91.79
32298;BME280;18782;48.984;8.548;2022-12-17T01:39:39;100532.88;;;-6.12;92.40
32298;BME280;18782;48.984;8.548;2022-12-17T01:42:25;100546.47;;;-6.10;91.60
32298;BME280;18782;48.984;8.548;2022-12-17T01:45:11;100550.56;;;-6.19;92.04
32298;BME280;18782;48.984;8.548;2022-12-17T01:47:58;100555.25;;;-6.22;92.14
32298;BME280;18782;48.984;8.548;2022-12-17T01:50:55;100562.31;;;-6.26;91.76
32298;BME280;18782;48.984;8.548;2022-12-17T01:53:43;100560.41;;;-6.29;92.15
32298;BME280;18782;48.984;8.548;2022-12-17T01:56:30;100561.69;;;-6.33;91.53
32298;BME280;18782;48.984;8.548;2022-12-17T01:59:30;100561.41;;;-6.36;91.84
32298;BME280;18782;48.984;8.548;2022-12-17T02:02:15;100565.22;;;-6.39;91.48
32298;BME280;18782;48.984;8.548;2022-12-17T02:05:01;100558.13;;;-6.43;91.11
32298;BME280;18782;48.984;8.548;2022-12-17T02:07:50;100557.84;;;-6.46;91.56
32298;BME280;18782;48.984;8.548;2022-12-17T02:10:52;100564.00;;;-6.51;91.31
32298;BME280;18782;48.984;8.548;2022-12-17T02:13:40;100569.56;;;-6.54;91.12
32298;BME280;18782;48.984;8.548;2022-12-17T02:16:29;100570.16;;;-6.57;90.78
32298;BME280;18782;48.984;8.548;2022-12-17T02:19:20;100578.41;;;-6.58;91.43
32298;BME280;18782;48.984;8.548;2022-12-17T02:22:10;100580.44;;;-6.62;90.69
32298;BME280;18782;48.984;8.548;2022-12-17T02:25:03;100585.72;;;-6.68;91.32
32298;BME280;18782;48.984;8.548;2022-12-17T02:27:53;100585.06;;;-6.74;90.89
32298;BME280;18782;48.984;8.548;2022-12-17T02:30:38;100586.53;;;-6.76;90.71
32298;BME280;18782;48.984;8.548;2022-12-17T02:33:34;100580.91;;;-6.82;91.44
32298;BME280;18782;48.984;8.548;2022-12-17T02:36:20;100594.16;;;-6.83;90.62
32298;BME280;18782;48.984;8.548;2022-12-17T02:39:05;100588.19;;;-6.92;90.63
32298;BME280;18782;48.984;8.548;2022-12-17T02:41:50;100604.75;;;-7.01;91.10
32298;BME280;18782;48.984;8.548;2022-12-17T02:44:40;100602.59;;;-6.98;90.96
32298;BME280;18782;48.984;8.548;2022-12-17T02:47:26;100597.59;;;-6.98;91.19
32298;BME280;18782;48.984;8.548;2022-12-17T02:50:11;100596.69;;;-6.99;91.13
32298;BME280;18782;48.984;8.548;2022-12-17T02:52:57;100605.16;;;-7.05;90.64
32298;BME280;18782;48.984;8.548;2022-12-17T02:55:43;100610.50;;;-7.02;90.80
32298;BME280;18782;48.984;8.548;2022-12-17T02:58:31;100613.41;;;-7.06;90.46
32298;BME280;18782;48.984;8.548;2022-12-17T03:01:18;100620.63;;;-7.10;89.93
32298;BME280;18782;48.984;8.548;2022-12-17T03:04:03;100615.03;;;-7.07;89.80
32298;BME280;18782;48.984;8.548;2022-12-17T03:07:00;100617.03;;;-7.12;89.74
32298;BME280;18782;48.984;8.548;2022-12-17T03:09:46;100627.44;;;-7.16;89.58
32298;BME280;18782;48.984;8.548;2022-12-17T03:12:31;100617.94;;;-7.11;89.96
32298;BME280;18782;48.984;8.548;2022-12-17T03:15:17;100635.28;;;-7.13;89.34
32298;BME280;18782;48.984;8.548;2022-12-17T03:18:03;100632.47;;;-7.16;90.34
32298;BME280;18782;48.984;8.548;2022-12-17T03:20:51;100632.47;;;-7.16;89.60
32298;BME280;18782;48.984;8.548;2022-12-17T03:23:37;100634.81;;;-7.17;90.28
32298;BME280;18782;48.984;8.548;2022-12-17T03:26:22;100640.41;;;-7.20;90.32
32298;BME280;18782;48.984;8.548;2022-12-17T03:29:07;100637.47;;;-7.16;89.90
32298;BME280;18782;48.984;8.548;2022-12-17T03:31:52;100636.75;;;-7.15;90.12
32298;BME280;18782;48.984;8.548;2022-12-17T03:34:38;100638.13;;;-7.10;89.72
32298;BME280;18782;48.984;8.548;2022-12-17T03:37:23;100642.69;;;-7.05;90.25
32298;BME280;18782;48.984;8.548;2022-12-17T03:40:09;100633.34;;;-6.99;90.17
32298;BME280;18782;48.984;8.548;2022-12-17T03:42:54;100636.50;;;-6.93;90.01
32298;BME280;18782;48.984;8.548;2022-12-17T03:45:39;100643.75;;;-6.88;89.28
32298;BME280;18782;48.984;8.548;2022-12-17T03:48:24;100653.91;;;-6.86;90.10
32298;BME280;18782;48.984;8.548;2022-12-17T03:51:10;100655.16;;;-6.74;89.88
32298;BME280;18782;48.984;8.548;2022-12-17T03:53:56;100656.38;;;-6.70;88.98
32298;BME280;18782;48.984;8.548;2022-12-17T03:56:41;100662.00;;;-6.64;89.33
32298;BME280;18782;48.984;8.548;2022-12-17T03:59:26;100656.44;;;-6.62;88.82
32298;BME280;18782;48.984;8.548;2022-12-17T04:02:11;100666.75;;;-6.59;88.84
32298;BME280;18782;48.984;8.548;2022-12-17T04:04:56;100674.00;;;-6.53;89.77
32298;BME280;18782;48.984;8.548;2022-12-17T04:07:47;100665.28;;;-6.41;89.38
32298;BME280;18782;48.984;8.548;2022-12-17T04:10:32;100663.94;;;-6.37;89.18
32298;BME280;18782;48.984;8.548;2022-12-17T04:13:19;100665.16;;;-6.34;89.11
32298;BME280;18782;48.984;8.548;2022-12-17T04:16:06;100672.09;;;-6.31;89.34
32298;BME280;18782;48.984;8.548;2022-12-17T04:18:52;100674.50;;;-6.24;89.79
32298;BME280;18782;48.984;8.548;2022-12-17T04:21:36;100674.81;;;-6.21;89.11
32298;BME280;18782;48.984;8.548;2022-12-17T04:24:23;100677.94;;;-6.15;89.75
32298;BME280;18782;48.984;8.548;2022-12-17T04:27:08;100681.81;;;-6.10;89.93
32298;BME280;18782;48.984;8.548;2022-12-17T04:29:53;100679.59;;;-6.07;89.64
32298;BME280;18782;48.984;8.548;2022-12-17T04:32:38;100678.59;;;-6.00;89.98
32298;BME280;18782;48.984;8.548;2022-12-17T04:35:38;100687.88;;;-5.90;89.12
32298;BME280;18782;48.984;8.548;2022-12-17T04:38:23;100681.00;;;-5.84;88.97
32298;BME280;18782;48.984;8.548;2022-12-17T04:41:09;100677.47;;;-5.78;89.82
32298;BME280;18782;48.984;8.548;2022-12-17T04:43:54;100682.34;;;-5.70;90.07
32298;BME280;18782;48.984;8.548;2022-12-17T04:46:40;100686.34;;;-5.64;88.91
32298;BME280;18782;48.984;8.548;2022-12-17T04:49:24;100681.09;;;-5.58;88.79
32298;BME280;18782;48.984;8.548;2022-12-17T04:52:10;100682.25;;;-5.55;88.34
32298;BME280;18782;48.984;8.548;2022-12-17T04:54:55;100688.16;;;-5.54;88.77
32298;BME280;18782;48.984;8.548;2022-12-17T04:57:41;100692.91;;;-5.48;88.35
32298;BME280;18782;48.984;8.548;2022-12-17T05:00:26;100692.72;;;-5.59;88.70
32298;BME280;18782;48.984;8.548;2022-12-17T05:03:11;100695.22;;;-5.59;88.79
32298;BME280;18782;48.984;8.548;2022-12-17T05:05:57;100690.22;;;-5.59;89.33
32298;BME280;18782;48.984;8.548;2022-12-17T05:08:42;100695.84;;;-5.53;89.56
32298;BME280;18782;48.984;8.548;2022-12-17T05:11:27;100699.81;;;-5.55;89.92
32298;BME280;18782;48.984;8.548;2022-12-17T05:14:17;100708.50;;;-5.60;90.46
32298;BME280;18782;48.984;8.548;2022-12-17T05:17:02;100710.63;;;-5.47;91.66
32298;BME280;18782;48.984;8.548;2022-12-17T05:19:47;100712.97;;;-5.48;90.96
32298;BME280;18782;48.984;8.548;2022-12-17T05:22:35;100706.50;;;-5.46;91.85
32298;BME280;18782;48.984;8.548;2022-12-17T05:25:20;100716.78;;;-5.61;91.86
32298;BME280;18782;48.984;8.548;2022-12-17T05:28:05;100726.81;;;-5.61;92.53
32298;BME280;18782;48.984;8.548;2022-12-17T05:31:00;100731.50;;;-5.64;93.72
32298;BME280;18782;48.984;8.548;2022-12-17T05:33:45;100733.84;;;-5.74;95.13
32298;BME280;18782;48.984;8.548;2022-12-17T05:36:29;100716.38;;;-5.81;95.57
32298;BME280;18782;48.984;8.548;2022-12-17T05:39:14;100729.66;;;-5.82;95.44
32298;BME280;18782;48.984;8.548;2022-12-17T05:41:59;100728.31;;;-5.87;95.73
32298;BME280;18782;48.984;8.548;2022-12-17T05:44:41;100732.28;;;-5.89;96.14
32298;BME280;18782;48.984;8.548;2022-12-17T05:47:41;100731.28;;;-5.91;96.13
32298;BME280;18782;48.984;8.548;2022-12-17T05:50:26;100749.19;;;-6.04;96.69
32298;BME280;18782;48.984;8.548;2022-12-17T05:53:11;100739.63;;;-6.24;97.85
32298;BME280;18782;48.984;8.548;2022-12-17T05:55:56;100744.25;;;-6.20;98.49
32298;BME280;18782;48.984;8.548;2022-12-17T05:58:41;100751.84;;;-6.27;98.57
32298;BME280;18782;48.984;8.548;2022-12-17T06:01:26;100740.03;;;-6.28;98.64
32298;BME280;18782;48.984;8.548;2022-12-17T06:04:13;100745.16;;;-6.35;98.26
32298;BME280;18782;48.984;8.548;2022-12-17T06:06:58;100747.34;;;-6.38;98.62
32298;BME280;18782;48.984;8.548;2022-12-17T06:09:43;100747.66;;;-6.35;98.54
32298;BME280;18782;48.984;8.548;2022-12-17T06:12:28;100760.59;;;-6.39;98.20
32298;BME280;18782;48.984;8.548;2022-12-17T06:15:13;100761.63;;;-6.37;98.95
32298;BME280;18782;48.984;8.548;2022-12-17T06:17:59;100757.56;;;-6.52;98.44
32298;BME280;18782;48.984;8.548;2022-12-17T06:20:45;100762.97;;;-6.41;98.51
32298;BME280;18782;48.984;8.548;2022-12-17T06:23:30;100763.22;;;-6.46;98.39
32298;BME280;18782;48.984;8.548;2022-12-17T06:26:15;100763.19;;;-6.31;98.20
32298;BME280;18782;48.984;8.548;2022-12-17T06:29:00;100760.06;;;-6.37;97.61
32298;BME280;18782;48.984;8.548;2022-12-17T06:31:45;100763.75;;;-6.49;97.08
32298;BME280;18782;48.984;8.548;2022-12-17T06:34:30;100770.00;;;-6.45;97.20
32298;BME280;18782;48.984;8.548;2022-12-17T06:37:16;100770.63;;;-6.39;97.69
32298;BME280;18782;48.984;8.548;2022-12-17T06:40:02;100773.09;;;-5.66;100.00
32298;BME280;18782;48.984;8.548;2022-12-17T06:42:53;100777.50;;;-5.72;100.00
32298;BME280;18782;48.984;8.548;2022-12-17T06:45:38;100781.44;;;-5.49;100.00
32298;BME280;18782;48.984;8.548;2022-12-17T06:48:23;100780.59;;;-5.41;100.00
32298;BME280;18782;48.984;8.548;2022-12-17T06:51:08;100784.75;;;-5.33;100.00
32298;BME280;18782;48.984;8.548;2022-12-17T06:53:54;100790.31;;;-5.44;98.84
32298;BME280;18782;48.984;8.548;2022-12-17T06:56:39;100783.34;;;-5.14;100.00
32298;BME280;18782;48.984;8.548;2022-12-17T06:59:23;100791.56;;;-5.32;100.00
32298;BME280;18782;48.984;8.548;2022-12-17T07:02:08;100785.75;;;-5.40;95.83
32298;BME280;18782;48.984;8.548;2022-12-17T07:04:56;100793.19;;;-5.24;98.39
32298;BME280;18782;48.984;8.548;2022-12-17T07:07:41;100803.59;;;-5.45;95.61
32298;BME280;18782;48.984;8.548;2022-12-17T07:10:27;100809.06;;;-5.74;93.24
32298;BME280;18782;48.984;8.548;2022-12-17T07:13:12;100818.06;;;-6.00;92.27
32298;BME280;18782;48.984;8.548;2022-12-17T07:15:57;100829.31;;;-5.97;93.49
32298;BME280;18782;48.984;8.548;2022-12-17T07:20:10;100834.50;;;-6.11;92.65
32298;BME280;18782;48.984;8.548;2022-12-17T07:22:55;100834.75;;;-6.17;92.81
32298;BME280;18782;48.984;8.548;2022-12-17T07:25:43;100836.97;;;-6.20;92.88
32298;BME280;18782;48.984;8.548;2022-12-17T07:28:28;100846.75;;;-6.30;94.71
32298;BME280;18782;48.984;8.548;2022-12-17T07:31:14;100854.66;;;-6.34;94.30
32298;BME280;18782;48.984;8.548;2022-12-17T07:33:59;100858.28;;;-6.39;92.80
32298;BME280;18782;48.984;8.548;2022-12-17T07:36:45;100860.94;;;-6.38;92.39
32298;BME280;18782;48.984;8.548;2022-12-17T07:39:31;100865.81;;;-6.39;92.62
32298;BME280;18782;48.984;8.548;2022-12-17T07:42:16;100876.88;;;-6.37;91.68
32298;BME280;18782;48.984;8.548;2022-12-17T07:45:01;100883.91;;;-6.58;91.47
32298;BME280;18782;48.984;8.548;2022-12-17T07:47:50;100889.94;;;-6.71;91.25
32298;BME280;18782;48.984;8.548;2022-12-17T07:50:35;100889.19;;;-6.86;91.67
32298;BME280;18782;48.984;8.548;2022-12-17T07:53:22;100890.19;;;-6.77;92.43
32298;BME280;18782;48.984;8.548;2022-12-17T07:56:07;100887.53;;;-6.78;91.30
32298;BME280;18782;48.984;8.548;2022-12-17T07:58:53;100893.59;;;-6.61;94.29
32298;BME280;18782;48.984;8.548;2022-12-17T08:01:38;100904.03;;;-6.17;100.00
32298;BME280;18782;48.984;8.548;2022-12-17T08:04:24;100908.66;;;-6.29;100.00
32298;BME280;18782;48.984;8.548;2022-12-17T08:07:09;100901.88;;;-6.30;93.48
32298;BME280;18782;48.984;8.548;2022-12-17T08:09:51;100912.19;;;-6.27;90.65
32298;BME280;18782;48.984;8.548;2022-12-17T08:12:37;100915.44;;;-6.28;89.47
32298;BME280;18782;48.984;8.548;2022-12-17T08:15:22;100919.28;;;-6.54;85.93
32298;BME280;18782;48.984;8.548;2022-12-17T08:18:07;100922.38;;;-6.41;87.83
32298;BME280;18782;48.984;8.548;2022-12-17T08:20:53;100921.56;;;-6.33;87.14
32298;BME280;18782;48.984;8.548;2022-12-17T08:23:37;100927.56;;;-6.24;87.26
32298;BME280;18782;48.984;8.548;2022-12-17T08:26:32;100934.50;;;-6.06;85.87
32298;BME280;18782;48.984;8.548;2022-12-17T08:29:18;100946.72;;;-5.93;85.68
32298;BME280;18782;48.984;8.548;2022-12-17T08:32:03;100946.81;;;-5.75;83.84
32298;BME280;18782;48.984;8.548;2022-12-17T08:34:48;100949.13;;;-5.45;92.60
32298;BME280;18782;48.984;8.548;2022-12-17T08:37:34;100948.53;;;-5.43;83.54
32298;BME280;18782;48.984;8.548;2022-12-17T08:40:19;100950.84;;;-5.29;81.20
32298;BME280;18782;48.984;8.548;2022-12-17T08:43:06;100957.22;;;-5.23;80.64
32298;BME280;18782;48.984;8.548;2022-12-17T08:45:51;100951.84;;;-5.11;80.71
32298;BME280;18782;48.984;8.548;2022-12-17T08:48:37;100955.81;;;-5.13;80.37
32298;BME280;18782;48.984;8.548;2022-12-17T08:51:23;100960.00;;;-5.05;80.01
32298;BME280;18782;48.984;8.548;2022-12-17T08:54:08;100960.06;;;-4.87;80.41
32298;BME280;18782;48.984;8.548;2022-12-17T08:56:54;100964.31;;;-4.62;79.58
32298;BME280;18782;48.984;8.548;2022-12-17T08:59:57;100972.38;;;-4.49;78.53
32298;BME280;18782;48.984;8.548;2022-12-17T09:02:43;100964.41;;;-4.36;77.94
32298;BME280;18782;48.984;8.548;2022-12-17T09:05:28;100964.13;;;-4.30;77.74
32298;BME280;18782;48.984;8.548;2022-12-17T09:08:14;100962.09;;;-4.17;77.58
32298;BME280;18782;48.984;8.548;2022-12-17T09:10:58;100958.13;;;-4.06;77.21
32298;BME280;18782;48.984;8.548;2022-12-17T09:13:43;100964.63;;;-4.00;76.76
32298;BME280;18782;48.984;8.548;2022-12-17T09:16:29;100967.31;;;-3.89;77.22
32298;BME280;18782;48.984;8.548;2022-12-17T09:19:29;100958.41;;;-3.77;76.47
32298;BME280;18782;48.984;8.548;2022-12-17T09:22:14;100961.66;;;-3.61;75.94
32298;BME280;18782;48.984;8.548;2022-12-17T09:24:59;100964.63;;;-3.48;75.84
32298;BME280;18782;48.984;8.548;2022-12-17T09:27:44;100963.91;;;-3.64;75.54
32298;BME280;18782;48.984;8.548;2022-12-17T09:30:29;100973.97;;;-3.47;76.38
32298;BME280;18782;48.984;8.548;2022-12-17T09:33:16;100969.63;;;-3.13;75.58
32298;BME280;18782;48.984;8.548;2022-12-17T09:36:03;100958.94;;;-3.02;75.54
32298;BME280;18782;48.984;8.548;2022-12-17T09:38:48;100969.69;;;-2.85;74.10
32298;BME280;18782;48.984;8.548;2022-12-17T09:41:41;100977.06;;;-2.70;74.61
32298;BME280;18782;48.984;8.548;2022-12-17T09:44:37;100980.78;;;-2.39;73.88
32298;BME280;18782;48.984;8.548;2022-12-17T09:47:36;100986.56;;;-2.12;72.41
32298;BME280;18782;48.984;8.548;2022-12-17T09:50:21;100976.94;;;-2.16;72.86
32298;BME280;18782;48.984;8.548;2022-12-17T09:53:20;100991.22;;;-1.98;77.35
32298;BME280;18782;48.984;8.548;2022-12-17T09:56:09;100981.56;;;-1.74;73.63
32298;BME280;18782;48.984;8.548;2022-12-17T09:58:55;100982.38;;;-1.65;73.63
32298;BME280;18782;48.984;8.548;2022-12-17T10:01:40;100992.63;;;-1.82;72.03
32298;BME280;18782;48.984;8.548;2022-12-17T10:04:32;100994.44;;;-1.90;71.21
32298;BME280;18782;48.984;8.548;2022-12-17T10:07:21;100993.75;;;-1.98;72.68
32298;BME280;18782;48.984;8.548;2022-12-17T10:10:16;100992.00;;;-1.80;72.99
32298;BME280;18782;48.984;8.548;2022-12-17T10:13:08;100982.75;;;-1.42;71.81
32298;BME280;18782;48.984;8.548;2022-12-17T10:15:55;100980.75;;;-0.88;71.27
32298;BME280;18782;48.984;8.548;2022-12-17T10:18:41;100979.97;;;-0.97;68.22
32298;BME280;18782;48.984;8.548;2022-12-17T10:21:29;100986.13;;;-0.64;69.73
32298;BME280;18782;48.984;8.548;2022-12-17T10:24:16;100981.53;;;-0.29;68.43
32298;BME280;18782;48.984;8.548;2022-12-17T10:27:07;100979.41;;;-0.04;67.37
32298;BME280;18782;48.984;8.548;2022-12-17T10:29:53;100979.63;;;-0.21;68.38
32298;BME280;18782;48.984;8.548;2022-12-17T10:32:38;100966.84;;;-0.23;68.40
32298;BME280;18782;48.984;8.548;2022-12-17T10:35:33;100969.25;;;-0.45;69.21
32298;BME280;18782;48.984;8.548;2022-12-17T10:38:21;100967.88;;;-0.41;78.96
32298;BME280;18782;48.984;8.548;2022-12-17T10:41:19;100965.97;;;-0.23;78.28
32298;BME280;18782;48.984;8.548;2022-12-17T10:44:22;100969.50;;;-0.01;81.38
32298;BME280;18782;48.984;8.548;2022-12-17T10:47:10;100969.38;;;0.81;78.44
32298;BME280;18782;48.984;8.548;2022-12-17T10:49:57;100966.19;;;0.83;69.96
32298;BME280;18782;48.984;8.548;2022-12-17T10:52:44;100971.97;;;2.02;79.52
32298;BME280;18782;48.984;8.548;2022-12-17T10:55:31;100969.84;;;2.42;65.47
32298;BME280;18782;48.984;8.548;2022-12-17T10:58:24;100979.34;;;1.65;63.00
32298;BME280;18782;48.984;8.548;2022-12-17T11:01:11;100978.28;;;1.29;65.31
32298;BME280;18782;48.984;8.548;2022-12-17T11:04:02;100982.88;;;1.23;66.01
32298;BME280;18782;48.984;8.548;2022-12-17T11:06:49;100972.09;;;1.26;65.38
32298;BME280;18782;48.984;8.548;2022-12-17T11:09:40;100978.28;;;1.29;65.46
32298;BME280;18782;48.984;8.548;2022-12-17T11:12:36;100974.06;;;1.62;65.34
32298;BME280;18782;48.984;8.548;2022-12-17T11:15:28;100968.34;;;1.76;65.67
32298;BME280;18782;48.984;8.548;2022-12-17T11:18:17;100983.69;;;2.12;64.52
32298;BME280;18782;48.984;8.548;2022-12-17T11:21:07;100984.44;;;2.56;63.28
32298;BME280;18782;48.984;8.548;2022-12-17T11:23:56;100980.63;;;2.39;61.41
32298;BME280;18782;48.984;8.548;2022-12-17T11:26:49;100971.84;;;2.46;62.10
32298;BME280;18782;48.984;8.548;2022-12-17T11:29:36;100976.66;;;2.31;61.32
32298;BME280;18782;48.984;8.548;2022-12-17T11:32:43;100977.41;;;2.18;62.33
32298;BME280;18782;48.984;8.548;2022-12-17T11:35:36;100988.59;;;2.44;61.88
32298;BME280;18782;48.984;8.548;2022-12-17T11:38:32;100978.56;;;2.80;60.75
32298;BME280;18782;48.984;8.548;2022-12-17T11:41:33;100974.66;;;3.09;58.86
32298;BME280;18782;48.984;8.548;2022-12-17T11:44:41;100974.88;;;3.12;58.92
32298;BME280;18782;48.984;8.548;2022-12-17T11:47:36;100982.59;;;3.25;58.33
32298;BME280;18782;48.984;8.548;2022-12-17T11:50:32;100970.75;;;3.62;59.43
32298;BME280;18782;48.984;8.548;2022-12-17T11:53:36;100970.81;;;4.14;56.20
32298;BME280;18782;48.984;8.548;2022-12-17T11:56:28;100968.06;;;4.11;56.74
32298;BME280;18782;48.984;8.548;2022-12-17T11:59:24;100973.38;;;4.14;56.07
32298;BME280;18782;48.984;8.548;2022-12-17T12:02:30;100970.78;;;4.52;55.05
32298;BME280;18782;48.984;8.548;2022-12-17T12:05:24;100976.56;;;4.89;54.56
32298;BME280;18782;48.984;8.548;2022-12-17T12:08:23;100973.63;;;4.83;54.54
32298;BME280;18782;48.984;8.548;2022-12-17T12:11:24;100973.63;;;4.83;53.99
32298;BME280;18782;48.984;8.548;2022-12-17T12:14:21;100977.84;;;4.83;54.36
32298;BME280;18782;48.984;8.548;2022-12-17T12:17:25;100971.34;;;5.01;53.09
32298;BME280;18782;48.984;8.548;2022-12-17T12:20:23;100974.91;;;4.77;54.94
32298;BME280;18782;48.984;8.548;2022-12-17T12:23:16;100970.88;;;4.54;53.72
32298;BME280;18782;48.984;8.548;2022-12-17T12:26:11;100980.28;;;4.41;54.76
32298;BME280;18782;48.984;8.548;2022-12-17T12:29:13;100978.13;;;4.34;55.53
32298;BME280;18782;48.984;8.548;2022-12-17T12:32:11;100979.63;;;4.06;55.67
32298;BME280;18782;48.984;8.548;2022-12-17T12:35:01;100983.50;;;3.87;55.91
32298;BME280;18782;48.984;8.548;2022-12-17T12:37:49;100977.97;;;3.08;57.73
32298;BME280;18782;48.984;8.548;2022-12-17T12:40:40;100985.19;;;2.90;58.21
32298;BME280;18782;48.984;8.548;2022-12-17T12:43:33;100984.00;;;2.73;58.89
32298;BME280;18782;48.984;8.548;2022-12-17T12:46:23;100988.31;;;2.51;59.99
32298;BME280;18782;48.984;8.548;2022-12-17T12:49:15;100991.34;;;2.23;60.24
32298;BME280;18782;48.984;8.548;2022-12-17T12:52:03;100999.59;;;2.09;61.86
32298;BME280;18782;48.984;8.548;2022-12-17T12:54:51;101002.72;;;2.28;62.39
32298;BME280;18782;48.984;8.548;2022-12-17T12:57:39;100996.38;;;2.69;60.67
32298;BME280;18782;48.984;8.548;2022-12-17T13:00:31;100997.34;;;2.59;59.50
32298;BME280;18782;48.984;8.548;2022-12-17T13:03:26;100985.72;;;2.27;61.08
32298;BME280;18782;48.984;8.548;2022-12-17T13:06:14;100982.00;;;2.69;59.03
32298;BME280;18782;48.984;8.548;2022-12-17T13:09:05;100965.53;;;2.87;58.35
32298;BME280;18782;48.984;8.548;2022-12-17T13:11:36;100972.91;;;2.84;58.08
32298;BME280;18782;48.984;8.548;2022-12-17T13:14:18;100960.53;;;2.66;59.35
32298;BME280;18782;48.984;8.548;2022-12-17T13:16:53;100969.34;;;2.12;60.64
32298;BME280;18782;48.984;8.548;2022-12-17T13:19:33;100962.47;;;1.99;60.10
32298;BME280;18782;48.984;8.548;2022-12-17T13:22:27;100960.59;;;1.63;61.98
32298;BME280;18782;48.984;8.548;2022-12-17T13:27:40;100959.66;;;2.42;60.53
32298;BME280;18782;48.984;8.548;2022-12-17T13:30:30;100959.22;;;2.59;61.74
32298;BME280;18782;48.984;8.548;2022-12-17T13:33:12;100959.44;;;2.85;67.20
32298;BME280;18782;48.984;8.548;2022-12-17T13:35:52;100969.16;;;2.79;61.50
32298;BME280;18782;48.984;8.548;2022-12-17T13:38:31;100960.69;;;2.67;60.44
32298;BME280;18782;48.984;8.548;2022-12-17T13:41:06;100966.38;;;2.76;59.54
32298;BME280;18782;48.984;8.548;2022-12-17T13:43:41;100968.38;;;3.04;58.56
32298;BME280;18782;48.984;8.548;2022-12-17T13:46:18;100977.00;;;3.43;56.43
32298;BME280;18782;48.984;8.548;2022-12-17T13:48:55;100971.22;;;3.57;67.32
32298;BME280;18782;48.984;8.548;2022-12-17T13:51:25;100978.81;;;3.93;58.21
32298;BME280;18782;48.984;8.548;2022-12-17T13:53:55;100982.59;;;3.62;56.48
32298;BME280;18782;48.984;8.548;2022-12-17T13:56:25;100998.38;;;3.81;55.94
32298;BME280;18782;48.984;8.548;2022-12-17T13:58:54;100995.06;;;3.96;55.63
32298;BME280;18782;48.984;8.548;2022-12-17T14:01:23;101001.97;;;3.60;55.70
32298;BME280;18782;48.984;8.548;2022-12-17T14:03:55;100999.28;;;3.33;56.70
32298;BME280;18782;48.984;8.548;2022-12-17T14:06:34;100995.41;;;3.27;55.94
32298;BME280;18782;48.984;8.548;2022-12-17T14:09:03;100995.72;;;3.43;55.70
32298;BME280;18782;48.984;8.548;2022-12-17T14:11:36;100993.88;;;3.17;56.19
32298;BME280;18782;48.984;8.548;2022-12-17T14:14:27;100995.47;;;2.92;57.40
32298;BME280;18782;48.984;8.548;2022-12-17T14:16:56;100993.38;;;2.51;58.27
32298;BME280;18782;48.984;8.548;2022-12-17T14:19:26;100985.75;;;2.51;58.51
32298;BME280;18782;48.984;8.548;2022-12-17T14:21:55;100993.00;;;2.23;60.04
32298;BME280;18782;48.984;8.548;2022-12-17T14:24:25;100987.63;;;2.30;59.77
32298;BME280;18782;48.984;8.548;2022-12-17T14:26:56;100993.41;;;2.17;64.79
32298;BME280;18782;48.984;8.548;2022-12-17T14:29:26;101000.28;;;1.85;65.87
32298;BME280;18782;48.984;8.548;2022-12-17T14:31:55;100997.16;;;1.55;62.50
32298;BME280;18782;48.984;8.548;2022-12-17T14:34:25;100995.50;;;1.34;62.98
32298;BME280;18782;48.984;8.548;2022-12-17T14:36:55;101003.69;;;0.87;63.88